Time;durP1;ratioP1;P1;durP2;ratioP2;P2;SDS_P1;SDS_P2;PMS_P1;PMS_P2;Temp;Humidity;BMP_temperature;BMP_pressure;BME280_temperature;BME280_humidity;BME280_pressure;Samples;Min_cycle;Max_cycle;Signal;HPM_P1;HPM_P2
2022/11/29 00:00:29;;;;;;;49.80;21.30;;;;;;;;;;5077917;28;20462;-58
2022/11/29 00:02:54;;;;;;;48.67;20.77;;;;;;;;;;5083942;28;20113;-58
2022/11/29 00:05:19;;;;;;;45.10;21.13;;;;;;;;;;5078162;28;20025;-58
2022/11/29 00:07:44;;;;;;;84.22;23.60;;;;;;;;;;5078199;28;20501;-58
2022/11/29 00:10:10;;;;;;;74.63;23.33;;;;;;;;;;5077289;28;20032;-58
2022/11/29 00:12:35;;;;;;;70.57;21.63;;;;;;;;;;5082609;28;20028;-58
2022/11/29 00:15:00;;;;;;;63.20;21.13;;;;;;;;;;5088593;28;20051;-58
2022/11/29 00:17:26;;;;;;;67.38;21.95;;;;;;;;;;5114036;27;20201;-58
2022/11/29 00:19:51;;;;;;;113.53;22.85;;;;;;;;;;5079447;28;20025;-58
2022/11/29 00:22:16;;;;;;;102.72;21.35;;;;;;;;;;5075471;28;20459;-58
2022/11/29 00:24:41;;;;;;;56.22;19.50;;;;;;;;;;5073641;28;20042;-58
2022/11/29 00:27:07;;;;;;;66.57;18.48;;;;;;;;;;5082716;28;20149;-58
2022/11/29 00:29:32;;;;;;;56.22;18.35;;;;;;;;;;5080458;28;20388;-58
2022/11/29 00:31:57;;;;;;;52.45;17.52;;;;;;;;;;5090935;28;20031;-58
2022/11/29 00:34:23;;;;;;;66.35;16.75;;;;;;;;;;5114317;27;20099;-58
2022/11/29 00:36:51;;;;;;;48.60;17.55;;;;;;;;;;5085675;28;20111;-58
2022/11/29 00:39:16;;;;;;;35.47;16.95;;;;;;;;;;5079044;28;20076;-58
2022/11/29 00:41:41;;;;;;;35.50;18.23;;;;;;;;;;5074268;28;20024;-58
2022/11/29 00:44:07;;;;;;;35.15;18.60;;;;;;;;;;5072788;28;20546;-58
2022/11/29 00:46:32;;;;;;;33.95;17.83;;;;;;;;;;5073852;28;20029;-58
2022/11/29 00:48:57;;;;;;;30.20;16.92;;;;;;;;;;5081450;28;20209;-58
2022/11/29 00:51:22;;;;;;;29.60;15.95;;;;;;;;;;5077028;28;20113;-58
2022/11/29 00:53:48;;;;;;;24.77;15.57;;;;;;;;;;5072225;28;20024;-58
2022/11/29 00:56:13;;;;;;;23.80;14.52;;;;;;;;;;5080364;28;20028;-58
2022/11/29 00:58:38;;;;;;;23.80;14.60;;;;;;;;;;5075286;28;21324;-58
2022/11/29 01:01:04;;;;;;;24.35;15.07;;;;;;;;;;5073871;28;20024;-58
2022/11/29 01:03:29;;;;;;;26.40;16.00;;;;;;;;;;5081065;28;20156;-58
2022/11/29 01:06:04;;;;;;;27.33;16.10;;;;;;;;;;5087694;28;20481;-58
2022/11/29 01:08:29;;;;;;;30.45;15.73;;;;;;;;;;5118746;27;20521;-58
2022/11/29 01:11:01;;;;;;;34.50;17.05;;;;;;;;;;5084374;28;20024;-58
2022/11/29 01:13:27;;;;;;;37.38;17.30;;;;;;;;;;5084772;28;20523;-58
2022/11/29 01:15:56;;;;;;;32.33;16.73;;;;;;;;;;5085675;28;20114;-58
2022/11/29 01:18:21;;;;;;;40.58;18.40;;;;;;;;;;5087245;28;20031;-58
2022/11/29 01:20:54;;;;;;;38.28;19.48;;;;;;;;;;5084798;28;20388;-58
2022/11/29 01:23:25;;;;;;;37.72;20.45;;;;;;;;;;5115707;27;20515;-58
2022/11/29 01:26:00;;;;;;;42.70;20.25;;;;;;;;;;5085255;28;20031;-58
2022/11/29 01:28:25;;;;;;;41.88;20.30;;;;;;;;;;5076537;28;20428;-58
2022/11/29 01:30:51;;;;;;;40.45;20.45;;;;;;;;;;5086661;28;20033;-58
2022/11/29 01:33:16;;;;;;;39.38;19.67;;;;;;;;;;5088784;28;20444;-58
2022/11/29 01:35:48;;;;;;;42.15;20.80;;;;;;;;;;5089277;28;20032;-58
2022/11/29 01:38:13;;;;;;;41.55;21.25;;;;;;;;;;5080447;28;20109;-58
2022/11/29 01:40:39;;;;;;;38.17;19.20;;;;;;;;;;5085910;28;20362;-58
2022/11/29 01:43:09;;;;;;;35.00;17.75;;;;;;;;;;5089851;28;20028;-58
2022/11/29 01:45:35;;;;;;;36.83;17.95;;;;;;;;;;5106045;27;20024;-58
2022/11/29 01:48:00;;;;;;;33.55;18.45;;;;;;;;;;5086409;28;20433;-58
2022/11/29 01:50:25;;;;;;;30.90;17.55;;;;;;;;;;5083060;28;20098;-58
2022/11/29 01:52:50;;;;;;;33.15;18.38;;;;;;;;;;5085486;28;20016;-58
2022/11/29 01:55:16;;;;;;;29.05;16.63;;;;;;;;;;5082168;28;20020;-58
2022/11/29 01:57:41;;;;;;;35.30;18.17;;;;;;;;;;5117688;27;20032;-58
2022/11/29 02:00:08;;;;;;;30.83;16.88;;;;;;;;;;5086116;28;20069;-58
2022/11/29 02:02:44;;;;;;;31.70;17.65;;;;;;;;;;5089219;28;20541;-58
2022/11/29 02:05:10;;;;;;;31.75;17.25;;;;;;;;;;5083885;28;20023;-58
2022/11/29 02:07:35;;;;;;;37.42;19.98;;;;;;;;;;5119326;27;20047;-58
2022/11/29 02:10:01;;;;;;;36.13;19.63;;;;;;;;;;5074570;28;20017;-58
2022/11/29 02:12:38;;;;;;;32.28;17.73;;;;;;;;;;5077980;28;20067;-58
2022/11/29 02:15:07;;;;;;;33.28;18.55;;;;;;;;;;5076877;28;20024;-58
2022/11/29 02:17:35;;;;;;;33.03;18.60;;;;;;;;;;5089966;28;20370;-58
2022/11/29 02:20:00;;;;;;;30.35;17.58;;;;;;;;;;5076710;28;20016;-58
2022/11/29 02:22:28;;;;;;;29.73;17.38;;;;;;;;;;5076261;28;20018;-58
2022/11/29 02:25:03;;;;;;;34.40;16.85;;;;;;;;;;5068252;28;20020;-57
2022/11/29 02:27:43;;;;;;;30.23;17.10;;;;;;;;;;5088304;28;20036;-57
2022/11/29 02:30:12;;;;;;;27.15;15.20;;;;;;;;;;5082183;28;20029;-58
2022/11/29 02:32:56;;;;;;;27.10;15.85;;;;;;;;;;5091928;28;20533;-57
2022/11/29 02:35:40;;;;;;;25.45;14.45;;;;;;;;;;5094699;28;20347;-58
2022/11/29 02:38:17;;;;;;;22.30;11.88;;;;;;;;;;5073661;28;20406;-58
2022/11/29 02:40:48;;;;;;;23.88;13.75;;;;;;;;;;5094230;28;20034;-58
2022/11/29 02:43:30;;;;;;;25.52;14.77;;;;;;;;;;5076572;28;20046;-57
2022/11/29 02:46:05;;;;;;;30.02;16.73;;;;;;;;;;5081098;28;20024;-57
2022/11/29 02:48:40;;;;;;;25.00;12.95;;;;;;;;;;5065770;28;20028;-57
2022/11/29 02:51:05;;;;;;;25.30;12.38;;;;;;;;;;5082589;28;20120;-59
2022/11/29 02:53:49;;;;;;;24.52;12.07;;;;;;;;;;5080323;28;20441;-59
2022/11/29 02:56:37;;;;;;;23.17;11.80;;;;;;;;;;5082812;28;20459;-59
2022/11/29 02:59:22;;;;;;;23.50;12.23;;;;;;;;;;5084724;28;20211;-57
2022/11/29 03:02:05;;;;;;;23.83;13.93;;;;;;;;;;5073120;28;20020;-59
2022/11/29 03:04:37;;;;;;;22.92;13.43;;;;;;;;;;5080503;28;20085;-58
2022/11/29 03:07:22;;;;;;;27.50;13.40;;;;;;;;;;5080466;28;20043;-59
2022/11/29 03:09:47;;;;;;;24.60;14.63;;;;;;;;;;5075451;28;20151;-59
2022/11/29 03:12:13;;;;;;;26.15;14.60;;;;;;;;;;5074156;28;20138;-58
2022/11/29 03:14:42;;;;;;;26.25;14.43;;;;;;;;;;5086626;28;20708;-58
2022/11/29 03:17:07;;;;;;;26.65;16.50;;;;;;;;;;5080624;28;20020;-59
2022/11/29 03:19:36;;;;;;;25.15;14.77;;;;;;;;;;5080506;28;20319;-58
2022/11/29 03:22:04;;;;;;;29.65;15.45;;;;;;;;;;5077427;28;20036;-59
2022/11/29 03:24:30;;;;;;;23.65;13.68;;;;;;;;;;5087007;28;20035;-58
2022/11/29 03:27:00;;;;;;;29.48;12.88;;;;;;;;;;5075837;28;20029;-57
2022/11/29 03:29:26;;;;;;;24.65;13.27;;;;;;;;;;5074358;28;20029;-57
2022/11/29 03:31:55;;;;;;;23.63;12.27;;;;;;;;;;5083985;28;20043;-57
2022/11/29 03:34:21;;;;;;;22.25;12.27;;;;;;;;;;5066199;28;20048;-57
2022/11/29 03:36:46;;;;;;;21.38;12.43;;;;;;;;;;5079736;28;20430;-57
2022/11/29 03:39:16;;;;;;;25.63;12.75;;;;;;;;;;5086167;28;20534;-57
2022/11/29 03:41:48;;;;;;;24.08;11.18;;;;;;;;;;5091892;28;20088;-57
2022/11/29 03:44:17;;;;;;;20.95;11.80;;;;;;;;;;5072646;28;20034;-57
2022/11/29 03:46:42;;;;;;;20.67;13.25;;;;;;;;;;5068838;28;20030;-57
2022/11/29 03:49:14;;;;;;;22.00;13.70;;;;;;;;;;5077625;28;20017;-57
2022/11/29 03:51:58;;;;;;;22.25;12.20;;;;;;;;;;5079526;28;20280;-57
2022/11/29 03:54:28;;;;;;;23.42;13.93;;;;;;;;;;5075479;28;20028;-57
2022/11/29 03:56:53;;;;;;;21.00;13.23;;;;;;;;;;5076094;28;20020;-57
2022/11/29 03:59:28;;;;;;;25.98;12.00;;;;;;;;;;5079804;28;20498;-57
2022/11/29 04:02:02;;;;;;;23.23;12.95;;;;;;;;;;5078741;28;20542;-57
2022/11/29 04:04:27;;;;;;;21.15;12.48;;;;;;;;;;5073591;28;20456;-57
2022/11/29 04:06:58;;;;;;;21.05;13.48;;;;;;;;;;5081707;28;20028;-57
2022/11/29 04:09:34;;;;;;;22.42;13.05;;;;;;;;;;5074591;28;20048;-57
2022/11/29 04:11:59;;;;;;;21.55;12.82;;;;;;;;;;5080404;28;20048;-57
2022/11/29 04:14:30;;;;;;;19.05;12.15;;;;;;;;;;5072944;28;20079;-57
2022/11/29 04:17:02;;;;;;;23.42;11.38;;;;;;;;;;5074368;28;20473;-57
2022/11/29 04:19:53;;;;;;;21.85;12.32;;;;;;;;;;5086241;28;20024;-57
2022/11/29 04:22:24;;;;;;;18.95;11.80;;;;;;;;;;5047052;28;20435;-57
2022/11/29 04:24:53;;;;;;;19.10;11.30;;;;;;;;;;5083016;28;20016;-57
2022/11/29 04:27:18;;;;;;;21.13;11.65;;;;;;;;;;5080900;28;20066;-57
2022/11/29 04:29:46;;;;;;;16.92;11.27;;;;;;;;;;5077597;28;20431;-57
2022/11/29 04:32:12;;;;;;;25.33;15.52;;;;;;;;;;5082113;28;20106;-57
2022/11/29 04:34:37;;;;;;;27.05;16.35;;;;;;;;;;5076944;28;20039;-57
2022/11/29 04:37:02;;;;;;;33.75;18.40;;;;;;;;;;5073169;28;20040;-57
2022/11/29 04:39:31;;;;;;;38.10;17.73;;;;;;;;;;5082218;28;20024;-57
2022/11/29 04:42:15;;;;;;;30.35;19.77;;;;;;;;;;5072253;28;20027;-57
2022/11/29 04:44:46;;;;;;;40.65;20.20;;;;;;;;;;5072479;28;20362;-57
2022/11/29 04:47:18;;;;;;;40.20;20.30;;;;;;;;;;5075565;28;20024;-57
2022/11/29 04:49:46;;;;;;;38.65;21.33;;;;;;;;;;5082647;28;20054;-57
2022/11/29 04:52:14;;;;;;;33.33;19.17;;;;;;;;;;5080279;28;20035;-57
2022/11/29 04:54:46;;;;;;;25.75;16.25;;;;;;;;;;5079053;28;20030;-59
2022/11/29 04:57:17;;;;;;;26.48;17.08;;;;;;;;;;5089740;28;20028;-57
2022/11/29 04:59:49;;;;;;;27.60;15.88;;;;;;;;;;5082274;28;20015;-58
2022/11/29 05:02:17;;;;;;;27.85;12.48;;;;;;;;;;5073599;28;20027;-58
2022/11/29 05:05:00;;;;;;;27.13;13.82;;;;;;;;;;5087418;28;20023;-58
2022/11/29 05:07:34;;;;;;;23.63;14.35;;;;;;;;;;5089621;28;20040;-58
2022/11/29 05:10:19;;;;;;;20.60;13.43;;;;;;;;;;5068343;28;20028;-58
2022/11/29 05:13:02;;;;;;;24.27;13.93;;;;;;;;;;5086215;28;20031;-57
2022/11/29 05:15:46;;;;;;;19.90;13.30;;;;;;;;;;5068864;28;20025;-57
2022/11/29 05:18:25;;;;;;;29.98;16.13;;;;;;;;;;5078526;28;20897;-58
2022/11/29 05:20:54;;;;;;;26.98;11.05;;;;;;;;;;5071655;28;20091;-59
2022/11/29 05:23:28;;;;;;;20.33;13.00;;;;;;;;;;5083254;28;20025;-58
2022/11/29 05:25:59;;;;;;;23.67;12.35;;;;;;;;;;5070076;28;20560;-57
2022/11/29 05:28:24;;;;;;;;;;;;;;;;;;5081593;28;20120;-58
2022/11/29 05:30:49;;;;;;;22.35;12.20;;;;;;;;;;5078457;28;19935;-57
2022/11/29 05:33:19;;;;;;;30.85;15.77;;;;;;;;;;5079745;28;20408;-57
2022/11/29 05:35:49;;;;;;;25.42;15.30;;;;;;;;;;5078454;28;20015;-57
2022/11/29 05:38:33;;;;;;;26.13;14.65;;;;;;;;;;5103613;27;20116;-57
2022/11/29 05:41:05;;;;;;;31.77;15.10;;;;;;;;;;5070430;28;20119;-58
2022/11/29 05:43:53;;;;;;;27.67;15.85;;;;;;;;;;5083696;28;20025;-58
2022/11/29 05:46:18;;;;;;;25.17;13.88;;;;;;;;;;5057133;28;20033;-57
2022/11/29 05:48:44;;;;;;;29.30;16.52;;;;;;;;;;5085884;28;20039;-58
2022/11/29 05:51:19;;;;;;;28.17;16.65;;;;;;;;;;5076842;28;20024;-58
2022/11/29 05:54:10;;;;;;;24.25;14.52;;;;;;;;;;5083973;28;20115;-58
2022/11/29 05:56:45;;;;;;;24.13;13.25;;;;;;;;;;5083075;28;20039;-58
2022/11/29 05:59:20;;;;;;;25.30;14.98;;;;;;;;;;5083314;28;20036;-58
2022/11/29 06:01:52;;;;;;;25.10;14.63;;;;;;;;;;5074155;28;20062;-58
2022/11/29 06:04:22;;;;;;;26.10;14.38;;;;;;;;;;5084200;28;20079;-58
2022/11/29 06:06:56;;;;;;;25.33;14.90;;;;;;;;;;5107697;27;20676;-59
2022/11/29 06:09:24;;;;;;;27.35;13.50;;;;;;;;;;5090888;28;20039;-58
2022/11/29 06:12:01;;;;;;;22.30;13.15;;;;;;;;;;5085270;28;20405;-58
2022/11/29 06:14:45;;;;;;;25.10;13.68;;;;;;;;;;5076833;28;20016;-58
2022/11/29 06:17:17;;;;;;;27.20;13.18;;;;;;;;;;5089826;28;20521;-58
2022/11/29 06:19:52;;;;;;;24.52;14.02;;;;;;;;;;5074500;28;20019;-58
2022/11/29 06:22:23;;;;;;;23.70;13.70;;;;;;;;;;5108101;27;20016;-58
2022/11/29 06:24:50;;;;;;;32.05;15.38;;;;;;;;;;5084186;28;20448;-58
2022/11/29 06:27:20;;;;;;;23.33;13.32;;;;;;;;;;5080919;28;20020;-58
2022/11/29 06:30:01;;;;;;;25.85;13.77;;;;;;;;;;5082519;28;20019;-58
2022/11/29 06:32:36;;;;;;;24.98;13.55;;;;;;;;;;5084844;28;20146;-58
2022/11/29 06:35:03;;;;;;;25.95;13.52;;;;;;;;;;5110158;27;20025;-58
2022/11/29 06:37:28;;;;;;;25.15;14.32;;;;;;;;;;5077752;28;20572;-58
2022/11/29 06:39:53;;;;;;;31.20;17.90;;;;;;;;;;5083192;28;20024;-58
2022/11/29 06:42:19;;;;;;;30.27;16.45;;;;;;;;;;5070596;28;20108;-58
2022/11/29 06:44:44;;;;;;;28.80;14.88;;;;;;;;;;5086599;28;20024;-58
2022/11/29 06:47:18;;;;;;;31.70;14.73;;;;;;;;;;5078787;28;20074;-58
2022/11/29 06:49:47;;;;;;;28.25;13.30;;;;;;;;;;5076066;28;20250;-58
2022/11/29 06:52:25;;;;;;;35.50;13.52;;;;;;;;;;5076434;28;20044;-58
2022/11/29 06:55:02;;;;;;;24.90;11.88;;;;;;;;;;5112868;27;20034;-57
2022/11/29 06:57:46;;;;;;;24.05;12.77;;;;;;;;;;5076041;28;20496;-58
2022/11/29 07:00:15;;;;;;;30.10;14.60;;;;;;;;;;5073051;28;20323;-58
2022/11/29 07:02:40;;;;;;;33.63;13.95;;;;;;;;;;5107976;27;20015;-58
2022/11/29 07:05:08;;;;;;;35.30;17.63;;;;;;;;;;5083424;28;20031;-59
2022/11/29 07:07:34;;;;;;;31.63;18.92;;;;;;;;;;5083667;28;20054;-58
2022/11/29 07:09:59;;;;;;;29.92;16.65;;;;;;;;;;5078455;28;20277;-59
2022/11/29 07:12:25;;;;;;;29.45;17.52;;;;;;;;;;5085009;28;20036;-58
2022/11/29 07:14:50;;;;;;;28.27;15.63;;;;;;;;;;5075123;28;20028;-58
2022/11/29 07:17:19;;;;;;;29.17;13.23;;;;;;;;;;5077716;28;20046;-58
2022/11/29 07:19:50;;;;;;;33.58;13.48;;;;;;;;;;5078781;28;20020;-58
2022/11/29 07:22:15;;;;;;;34.75;12.50;;;;;;;;;;5088378;28;20375;-58
2022/11/29 07:24:45;;;;;;;34.40;14.82;;;;;;;;;;5080633;28;20116;-59
2022/11/29 07:27:14;;;;;;;30.73;12.88;;;;;;;;;;5072024;28;20028;-59
2022/11/29 07:29:58;;;;;;;38.55;14.82;;;;;;;;;;5077294;28;21346;-59
2022/11/29 07:32:33;;;;;;;32.85;16.60;;;;;;;;;;5076323;28;20175;-59
2022/11/29 07:35:09;;;;;;;29.52;14.90;;;;;;;;;;5086220;28;20031;-58
2022/11/29 07:37:40;;;;;;;37.30;14.35;;;;;;;;;;5080816;28;20119;-59
2022/11/29 07:40:12;;;;;;;26.35;11.10;;;;;;;;;;5073582;28;20472;-57
2022/11/29 07:42:37;;;;;;;34.22;12.90;;;;;;;;;;5108894;27;20043;-59
2022/11/29 07:45:02;;;;;;;28.83;10.93;;;;;;;;;;5075036;28;20020;-59
2022/11/29 07:47:27;;;;;;;28.63;12.35;;;;;;;;;;5076147;28;20055;-59
2022/11/29 07:49:53;;;;;;;27.20;11.65;;;;;;;;;;5080698;28;20024;-59
2022/11/29 07:52:18;;;;;;;24.23;11.48;;;;;;;;;;5070260;28;20171;-59
2022/11/29 07:54:43;;;;;;;28.60;12.70;;;;;;;;;;5076661;28;20111;-59
2022/11/29 07:57:08;;;;;;;29.55;11.63;;;;;;;;;;5074809;28;20027;-58
2022/11/29 07:59:34;;;;;;;26.13;11.13;;;;;;;;;;5079714;28;20288;-58
2022/11/29 08:01:59;;;;;;;30.65;12.48;;;;;;;;;;5086177;28;20030;-58
2022/11/29 08:04:24;;;;;;;26.10;13.75;;;;;;;;;;5075673;28;20431;-58
2022/11/29 08:06:50;;;;;;;37.55;17.52;;;;;;;;;;5076423;28;20024;-58
2022/11/29 08:09:15;;;;;;;34.80;16.20;;;;;;;;;;5080394;28;20048;-58
2022/11/29 08:11:40;;;;;;;24.13;10.93;;;;;;;;;;5076072;28;20259;-59
2022/11/29 08:14:05;;;;;;;35.28;12.25;;;;;;;;;;5075600;28;20074;-59
2022/11/29 08:16:32;;;;;;;27.60;12.18;;;;;;;;;;5079910;28;20254;-58
2022/11/29 08:18:57;;;;;;;24.98;11.75;;;;;;;;;;5082233;28;20024;-57
2022/11/29 08:21:23;;;;;;;34.38;14.13;;;;;;;;;;5079536;28;20024;-58
2022/11/29 08:23:48;;;;;;;32.35;13.43;;;;;;;;;;5078517;28;20481;-58
2022/11/29 08:26:14;;;;;;;30.88;12.77;;;;;;;;;;5073040;28;20250;-58
2022/11/29 08:28:39;;;;;;;31.23;15.05;;;;;;;;;;5075264;28;20554;-58
2022/11/29 08:31:06;;;;;;;33.60;14.50;;;;;;;;;;5080930;28;20031;-57
2022/11/29 08:33:33;;;;;;;35.90;14.98;;;;;;;;;;5079828;28;20047;-58
2022/11/29 08:36:08;;;;;;;33.78;14.23;;;;;;;;;;5075095;28;20834;-58
2022/11/29 08:38:33;;;;;;;38.22;15.60;;;;;;;;;;5076392;28;20107;-58
2022/11/29 08:41:02;;;;;;;40.95;16.65;;;;;;;;;;5077154;28;20110;-58
2022/11/29 08:43:28;;;;;;;43.63;16.95;;;;;;;;;;5081575;28;20552;-58
2022/11/29 08:45:53;;;;;;;40.63;16.67;;;;;;;;;;5068688;28;20435;-58
2022/11/29 08:48:18;;;;;;;47.65;19.60;;;;;;;;;;5075074;28;20028;-57
2022/11/29 08:50:46;;;;;;;44.25;19.60;;;;;;;;;;5075096;28;20070;-57
2022/11/29 08:55:57;;;;;;;42.20;17.55;;;;;;;;;;5078315;28;20113;-57
2022/11/29 08:58:24;;;;;;;38.45;18.83;;;;;;;;;;5072170;28;20387;-57
2022/11/29 09:00:49;;;;;;;55.38;19.17;;;;;;;;;;5078983;28;20066;-59
2022/11/29 09:06:03;;;;;;;44.83;19.25;;;;;;;;;;5075596;28;20084;-57
2022/11/29 09:08:28;;;;;;;43.00;20.25;;;;;;;;;;5080900;28;20573;-59
2022/11/29 09:10:53;;;;;;;43.33;20.40;;;;;;;;;;5081684;28;20028;-57
2022/11/29 09:13:19;;;;;;;43.47;19.48;;;;;;;;;;5075431;28;20445;-59
2022/11/29 09:15:44;;;;;;;48.63;19.52;;;;;;;;;;5073945;28;20117;-59
2022/11/29 09:18:09;;;;;;;46.67;18.60;;;;;;;;;;5072194;28;20437;-59
2022/11/29 09:20:35;;;;;;;46.13;18.85;;;;;;;;;;5072331;28;20032;-59
2022/11/29 09:23:00;;;;;;;47.03;19.73;;;;;;;;;;5071407;28;20099;-58
2022/11/29 09:25:25;;;;;;;46.47;19.17;;;;;;;;;;5075866;28;20478;-59
2022/11/29 09:27:50;;;;;;;47.90;20.45;;;;;;;;;;5076350;28;20547;-58
2022/11/29 09:30:16;;;;;;;50.75;23.05;;;;;;;;;;5076516;28;20028;-59
2022/11/29 09:32:41;;;;;;;67.07;32.70;;;;;;;;;;5073040;28;20028;-58
2022/11/29 09:35:07;;;;;;;55.38;23.65;;;;;;;;;;5087198;28;20020;-58
2022/11/29 09:37:34;;;;;;;43.88;21.67;;;;;;;;;;5083664;28;20035;-59
2022/11/29 09:39:59;;;;;;;52.03;22.60;;;;;;;;;;5081527;28;20473;-58
2022/11/29 09:42:36;;;;;;;43.33;20.73;;;;;;;;;;5080222;28;20024;-59
2022/11/29 09:45:06;;;;;;;41.17;17.40;;;;;;;;;;5074967;28;20012;-59
2022/11/29 09:47:34;;;;;;;57.08;19.42;;;;;;;;;;5076881;28;20028;-56
2022/11/29 09:50:02;;;;;;;46.88;19.40;;;;;;;;;;5079549;28;20387;-56
2022/11/29 09:52:27;;;;;;;47.92;19.88;;;;;;;;;;5075875;28;20390;-59
2022/11/29 09:55:16;;;;;;;55.95;20.75;;;;;;;;;;5078192;28;20024;-59
2022/11/29 09:57:42;;;;;;;50.75;20.10;;;;;;;;;;5079387;27;20115;-58
2022/11/29 10:00:13;;;;;;;49.85;20.27;;;;;;;;;;5077828;28;20028;-59
2022/11/29 10:02:44;;;;;;;47.20;19.40;;;;;;;;;;5074261;28;20024;-59
2022/11/29 10:05:20;;;;;;;47.75;18.98;;;;;;;;;;5077726;28;20032;-58
2022/11/29 10:07:47;;;;;;;45.85;19.30;;;;;;;;;;5074612;28;20485;-58
2022/11/29 10:10:23;;;;;;;50.40;19.33;;;;;;;;;;5076506;28;20021;-58
2022/11/29 10:12:52;;;;;;;40.38;17.33;;;;;;;;;;5074003;28;20039;-58
2022/11/29 10:15:26;;;;;;;38.17;15.48;;;;;;;;;;5069177;28;20078;-58
2022/11/29 10:17:54;;;;;;;39.90;16.60;;;;;;;;;;5077951;28;20166;-58
2022/11/29 10:20:26;;;;;;;43.33;15.85;;;;;;;;;;5076086;28;20020;-58
2022/11/29 10:23:09;;;;;;;40.47;15.98;;;;;;;;;;5074596;28;20025;-58
2022/11/29 10:25:36;;;;;;;42.03;16.48;;;;;;;;;;5079543;28;20032;-58
2022/11/29 10:28:02;;;;;;;44.30;17.27;;;;;;;;;;5080103;28;20072;-57
2022/11/29 10:30:28;;;;;;;40.88;16.67;;;;;;;;;;5077673;28;20024;-59
2022/11/29 10:32:55;;;;;;;34.42;15.45;;;;;;;;;;5077173;28;20061;-59
2022/11/29 10:35:20;;;;;;;44.25;15.15;;;;;;;;;;5077490;28;20024;-58
2022/11/29 10:37:45;;;;;;;39.67;15.05;;;;;;;;;;5075243;28;20427;-58
2022/11/29 10:40:15;;;;;;;58.03;17.25;;;;;;;;;;5074208;28;20024;-58
2022/11/29 10:42:52;;;;;;;52.08;16.17;;;;;;;;;;5077366;28;20016;-59
2022/11/29 10:45:32;;;;;;;41.42;15.88;;;;;;;;;;5074794;28;20035;-58
2022/11/29 10:48:01;;;;;;;44.28;16.73;;;;;;;;;;5086638;28;20107;-58
2022/11/29 10:50:26;;;;;;;46.40;17.02;;;;;;;;;;5081801;28;20469;-58
2022/11/29 10:52:57;;;;;;;53.08;18.80;;;;;;;;;;5072478;28;20044;-58
2022/11/29 10:55:22;;;;;;;45.88;18.27;;;;;;;;;;5075817;28;20035;-58
2022/11/29 10:58:18;;;;;;;38.85;15.70;;;;;;;;;;5071836;28;20032;-58
2022/11/29 11:00:50;;;;;;;52.28;18.05;;;;;;;;;;5070940;28;20028;-58
2022/11/29 11:03:21;;;;;;;45.17;18.58;;;;;;;;;;5073990;28;20466;-60
2022/11/29 11:05:57;;;;;;;51.70;18.98;;;;;;;;;;5069941;28;20113;-58
2022/11/29 11:08:23;;;;;;;42.35;18.40;;;;;;;;;;5076861;28;20044;-58
2022/11/29 11:10:52;;;;;;;45.28;16.05;;;;;;;;;;5079784;28;20425;-59
2022/11/29 11:13:19;;;;;;;48.83;16.93;;;;;;;;;;5079676;28;20045;-59
2022/11/29 11:15:44;;;;;;;52.30;18.48;;;;;;;;;;5072125;28;20104;-58
2022/11/29 11:18:18;;;;;;;51.53;18.23;;;;;;;;;;5078387;28;20110;-57
2022/11/29 11:20:43;;;;;;;42.42;16.80;;;;;;;;;;5077200;28;20640;-57
2022/11/29 11:23:27;;;;;;;43.90;15.32;;;;;;;;;;5077083;28;20158;-58
2022/11/29 11:25:56;;;;;;;42.70;16.88;;;;;;;;;;5083640;28;20115;-59
2022/11/29 11:28:24;;;;;;;47.17;17.50;;;;;;;;;;5071690;28;20556;-59
2022/11/29 11:30:49;;;;;;;47.78;17.17;;;;;;;;;;5085222;28;20413;-59
2022/11/29 11:33:20;;;;;;;42.55;17.35;;;;;;;;;;5078186;28;20028;-58
2022/11/29 11:36:04;;;;;;;44.90;16.08;;;;;;;;;;5078055;28;20107;-58
2022/11/29 11:38:29;;;;;;;47.50;18.85;;;;;;;;;;5078745;28;20127;-58
2022/11/29 11:41:13;;;;;;;51.70;18.98;;;;;;;;;;5079925;28;20364;-59
2022/11/29 11:43:38;;;;;;;51.30;19.45;;;;;;;;;;5080452;28;20467;-59
2022/11/29 11:46:03;;;;;;;43.17;16.20;;;;;;;;;;5073666;28;20646;-59
2022/11/29 11:48:28;;;;;;;43.13;15.80;;;;;;;;;;5106894;27;20020;-57
2022/11/29 11:50:55;;;;;;;48.80;18.40;;;;;;;;;;5078454;28;20028;-59
2022/11/29 11:53:26;;;;;;;47.33;17.98;;;;;;;;;;5071429;28;20425;-57
2022/11/29 11:55:56;;;;;;;47.47;18.60;;;;;;;;;;5076443;28;20225;-59
2022/11/29 11:58:22;;;;;;;48.38;18.00;;;;;;;;;;5081403;28;20092;-58
2022/11/29 12:00:50;;;;;;;42.22;17.73;;;;;;;;;;5078831;28;20051;-58
2022/11/29 12:03:18;;;;;;;40.42;18.20;;;;;;;;;;5078325;28;20020;-58
2022/11/29 12:05:45;;;;;;;53.92;20.05;;;;;;;;;;5075869;28;20055;-58
2022/11/29 12:08:10;;;;;;;54.70;20.05;;;;;;;;;;5080629;28;20068;-58
2022/11/29 12:10:35;;;;;;;48.47;18.52;;;;;;;;;;5079868;28;20070;-57
2022/11/29 12:13:01;;;;;;;51.53;19.60;;;;;;;;;;5074923;28;20032;-57
2022/11/29 12:15:34;;;;;;;50.67;19.08;;;;;;;;;;5076053;28;20364;-58
2022/11/29 12:18:13;;;;;;;61.85;23.58;;;;;;;;;;5071442;28;20023;-57
2022/11/29 12:20:41;;;;;;;49.60;17.50;;;;;;;;;;5075206;28;20016;-59
2022/11/29 12:23:12;;;;;;;42.35;17.58;;;;;;;;;;5071742;28;20028;-59
2022/11/29 12:25:43;;;;;;;52.50;19.77;;;;;;;;;;5071571;28;20048;-59
2022/11/29 12:28:08;;;;;;;;;;;;;;;;;;5080013;28;20028;-59
2022/11/29 12:30:33;;;;;;;40.45;15.95;;;;;;;;;;5072367;28;19919;-58
2022/11/29 12:33:37;;;;;;;45.33;16.17;;;;;;;;;;5107020;27;20323;-58
2022/11/29 12:36:08;;;;;;;51.65;19.00;;;;;;;;;;5061048;28;20400;-58
2022/11/29 12:38:39;;;;;;;39.17;15.55;;;;;;;;;;5061623;28;20032;-58
2022/11/29 12:41:21;;;;;;;44.15;17.55;;;;;;;;;;5064809;28;20059;-58
2022/11/29 12:44:07;;;;;;;50.75;16.58;;;;;;;;;;5098966;27;20081;-59
2022/11/29 12:46:32;;;;;;;57.45;16.55;;;;;;;;;;5050554;28;20028;-58
2022/11/29 12:49:12;;;;;;;45.83;16.27;;;;;;;;;;5074188;28;20016;-59
2022/11/29 12:51:54;;;;;;;52.85;16.92;;;;;;;;;;5079794;28;20410;-59
2022/11/29 12:54:19;;;;;;;44.30;16.10;;;;;;;;;;5077001;28;20034;-59
2022/11/29 12:57:00;;;;;;;54.72;17.17;;;;;;;;;;5081556;28;20019;-59
2022/11/29 12:59:25;;;;;;;49.35;17.65;;;;;;;;;;5068192;28;20036;-58
2022/11/29 13:01:50;;;;;;;51.75;17.48;;;;;;;;;;5081598;28;20024;-58
2022/11/29 13:04:28;;;;;;;49.80;18.88;;;;;;;;;;5063220;28;20047;-59
2022/11/29 13:06:53;;;;;;;49.17;18.63;;;;;;;;;;5076839;28;20048;-61
2022/11/29 13:09:28;;;;;;;49.80;17.92;;;;;;;;;;5078365;28;20309;-59
2022/11/29 13:11:56;;;;;;;53.53;16.95;;;;;;;;;;5076786;28;20063;-59
2022/11/29 13:14:36;;;;;;;58.78;17.83;;;;;;;;;;5070361;28;20407;-59
2022/11/29 13:17:02;;;;;;;44.03;15.70;;;;;;;;;;5073103;28;20744;-59
2022/11/29 13:19:31;;;;;;;46.63;18.23;;;;;;;;;;5078610;28;20131;-58
2022/11/29 13:22:02;;;;;;;56.42;19.02;;;;;;;;;;5074303;28;20813;-58
2022/11/29 13:24:30;;;;;;;54.03;19.20;;;;;;;;;;5083159;28;20046;-58
2022/11/29 13:26:55;;;;;;;56.90;19.60;;;;;;;;;;5079708;28;20031;-57
2022/11/29 13:29:21;;;;;;;56.20;19.73;;;;;;;;;;5069995;28;20020;-58
2022/11/29 13:31:46;;;;;;;42.53;19.13;;;;;;;;;;5100266;28;20449;-58
2022/11/29 13:34:17;;;;;;;54.72;17.85;;;;;;;;;;5077609;28;20031;-58
2022/11/29 13:36:52;;;;;;;51.35;17.67;;;;;;;;;;5085194;28;20030;-58
2022/11/29 13:39:37;;;;;;;49.72;17.10;;;;;;;;;;5079596;28;20025;-57
2022/11/29 13:42:11;;;;;;;49.15;17.70;;;;;;;;;;5103640;27;20055;-58
2022/11/29 13:44:45;;;;;;;50.10;18.70;;;;;;;;;;5115072;27;20093;-57
2022/11/29 13:47:11;;;;;;;55.25;19.35;;;;;;;;;;5112727;27;20024;-58
2022/11/29 13:49:56;;;;;;;52.70;18.08;;;;;;;;;;5067084;28;20395;-57
2022/11/29 13:52:24;;;;;;;54.45;16.65;;;;;;;;;;5075639;28;20108;-58
2022/11/29 13:55:01;;;;;;;46.25;17.05;;;;;;;;;;5080268;28;20032;-57
2022/11/29 13:57:29;;;;;;;51.63;18.65;;;;;;;;;;5082844;28;20074;-57
2022/11/29 13:59:55;;;;;;;46.25;17.75;;;;;;;;;;5075366;28;20031;-58
2022/11/29 14:02:27;;;;;;;51.40;16.27;;;;;;;;;;5080418;28;20299;-58
2022/11/29 14:04:52;;;;;;;50.75;18.08;;;;;;;;;;5079896;28;20035;-58
2022/11/29 14:07:18;;;;;;;47.42;18.58;;;;;;;;;;5071378;28;20379;-58
2022/11/29 14:10:02;;;;;;;63.58;17.52;;;;;;;;;;5069099;28;20063;-58
2022/11/29 14:12:35;;;;;;;46.88;16.55;;;;;;;;;;5081427;28;20040;-58
2022/11/29 14:15:10;;;;;;;48.25;16.15;;;;;;;;;;5085417;28;20160;-57
2022/11/29 14:17:45;;;;;;;47.58;18.20;;;;;;;;;;5077430;28;20410;-58
2022/11/29 14:20:23;;;;;;;51.05;18.70;;;;;;;;;;5080790;28;20079;-57
2022/11/29 14:23:04;;;;;;;55.20;18.30;;;;;;;;;;5080677;28;20478;-57
2022/11/29 14:25:29;;;;;;;61.28;18.77;;;;;;;;;;5087970;28;20475;-57
2022/11/29 14:27:55;;;;;;;46.28;17.65;;;;;;;;;;5082210;28;20251;-58
2022/11/29 14:30:29;;;;;;;56.47;17.85;;;;;;;;;;5084246;28;20034;-57
2022/11/29 14:33:13;;;;;;;52.30;20.02;;;;;;;;;;5093686;28;20031;-58
2022/11/29 14:35:46;;;;;;;55.10;20.88;;;;;;;;;;5084854;28;20024;-58
2022/11/29 14:38:18;;;;;;;48.08;17.98;;;;;;;;;;5081148;28;20478;-58
2022/11/29 14:40:52;;;;;;;53.83;18.90;;;;;;;;;;5077154;28;20380;-58